createdAt,value
2023-03-29T00:00:09.339Z,76.40
2023-03-29T00:02:36.848Z,75.70
2023-03-29T00:05:05.082Z,75.90
2023-03-29T00:07:33.995Z,76.20
2023-03-29T00:10:05.056Z,76.10
2023-03-29T00:12:32.389Z,77.40
2023-03-29T00:14:59.212Z,76.90
2023-03-29T00:17:26.417Z,76.90
2023-03-29T00:19:53.323Z,76.80
2023-03-29T00:22:20.387Z,76.40
2023-03-29T00:24:49.077Z,76.60
2023-03-29T00:27:16.607Z,76.80
2023-03-29T00:29:43.612Z,76.50
2023-03-29T00:32:10.444Z,76.50
2023-03-29T00:34:37.343Z,76.70
2023-03-29T00:37:04.226Z,76.60
2023-03-29T00:39:31.404Z,76.20
2023-03-29T00:41:58.152Z,76.90
2023-03-29T00:44:56.352Z,76.90
2023-03-29T00:47:38.196Z,76.40
2023-03-29T00:50:41.336Z,76.20
2023-03-29T00:53:13.066Z,76.10
2023-03-29T00:56:06.328Z,76.20
2023-03-29T00:58:49.192Z,76.10
2023-03-29T01:01:21.196Z,75.60
2023-03-29T01:03:56.620Z,75.60
2023-03-29T01:06:26.431Z,76.60
2023-03-29T01:09:00.110Z,75.80
2023-03-29T01:11:41.873Z,76.00
2023-03-29T01:14:18.329Z,76.00
2023-03-29T01:16:46.165Z,75.10
2023-03-29T01:19:19.096Z,75.70
2023-03-29T01:22:08.445Z,75.80
2023-03-29T01:25:29.457Z,75.50
2023-03-29T01:27:58.921Z,75.40
2023-03-29T01:30:51.934Z,75.30
2023-03-29T01:33:25.734Z,76.20
2023-03-29T01:35:57.770Z,75.90
2023-03-29T01:38:30.666Z,75.90
2023-03-29T01:40:57.567Z,75.80
2023-03-29T01:43:31.603Z,75.40
2023-03-29T01:46:20.913Z,75.30
2023-03-29T01:48:52.717Z,75.20
2023-03-29T01:51:28.803Z,75.80
2023-03-29T01:54:01.388Z,75.80
2023-03-29T01:56:31.098Z,75.00
2023-03-29T01:59:04.104Z,76.00
2023-03-29T02:01:38.417Z,76.00
2023-03-29T02:04:11.093Z,76.10
2023-03-29T02:06:39.719Z,75.90
2023-03-29T02:09:07.255Z,76.00
2023-03-29T02:11:35.916Z,76.40
2023-03-29T02:14:03.487Z,76.60
2023-03-29T02:16:39.113Z,76.60
2023-03-29T02:19:07.989Z,76.30
2023-03-29T02:21:41.211Z,77.20
2023-03-29T02:24:11.403Z,77.70
2023-03-29T02:26:38.184Z,77.50
2023-03-29T02:29:05.157Z,77.10
2023-03-29T02:31:41.045Z,77.60
2023-03-29T02:34:16.217Z,77.60
2023-03-29T02:36:44.907Z,77.90
2023-03-29T02:39:15.726Z,78.00
2023-03-29T02:41:45.533Z,78.30
2023-03-29T02:44:15.107Z,78.30
2023-03-29T02:46:43.883Z,78.40
2023-03-29T02:49:11.634Z,78.30
2023-03-29T02:51:39.074Z,79.00
2023-03-29T02:54:21.388Z,79.40
2023-03-29T02:56:54.917Z,79.30
2023-03-29T02:59:24.998Z,79.30
2023-03-29T03:01:55.209Z,79.60
2023-03-29T03:04:22.304Z,79.90
2023-03-29T03:06:49.146Z,79.30
2023-03-29T03:09:15.960Z,80.70
2023-03-29T03:11:42.903Z,80.90
2023-03-29T03:14:09.709Z,80.70
2023-03-29T03:16:37.235Z,81.00
2023-03-29T03:19:04.625Z,80.80
2023-03-29T03:21:31.411Z,80.90
2023-03-29T03:23:58.147Z,81.00
2023-03-29T03:26:25.087Z,81.50
2023-03-29T03:28:52.069Z,81.00
2023-03-29T03:31:19.703Z,81.40
2023-03-29T03:33:46.781Z,81.70
2023-03-29T03:36:14.087Z,82.00
2023-03-29T03:38:42.004Z,82.60
2023-03-29T03:41:09.130Z,82.60
2023-03-29T03:43:36.495Z,82.60
2023-03-29T03:46:03.413Z,83.10
2023-03-29T03:48:30.520Z,82.90
2023-03-29T03:50:59.137Z,83.00
2023-03-29T03:53:28.506Z,82.90
2023-03-29T03:55:58.502Z,83.40
2023-03-29T03:58:26.051Z,83.40
2023-03-29T04:00:52.863Z,83.30
2023-03-29T04:03:19.843Z,83.20
2023-03-29T04:05:47.311Z,83.80
2023-03-29T04:08:15.124Z,83.60
2023-03-29T04:10:42.194Z,83.50
2023-03-29T04:13:08.967Z,84.70
2023-03-29T04:15:38.631Z,84.20
2023-03-29T04:18:07.627Z,84.70
2023-03-29T04:20:35.255Z,84.70
2023-03-29T04:23:02.276Z,84.50
2023-03-29T04:25:29.646Z,84.60
2023-03-29T04:27:56.643Z,84.70
2023-03-29T04:30:23.696Z,84.80
2023-03-29T04:32:50.612Z,84.80
2023-03-29T04:35:17.934Z,84.90
2023-03-29T04:37:44.785Z,85.20
2023-03-29T04:40:14.469Z,84.90
2023-03-29T04:42:45.923Z,85.30
2023-03-29T04:45:18.141Z,85.10
2023-03-29T04:47:46.373Z,85.20
2023-03-29T04:50:13.943Z,85.30
2023-03-29T04:52:41.014Z,85.00
2023-03-29T04:55:08.733Z,85.60
2023-03-29T04:57:35.504Z,85.70
2023-03-29T05:00:02.626Z,85.50
2023-03-29T05:02:32.477Z,85.80
2023-03-29T05:04:59.395Z,86.00
2023-03-29T05:07:52.928Z,86.10
2023-03-29T05:10:19.752Z,86.10
2023-03-29T05:12:46.989Z,86.10
2023-03-29T05:15:14.864Z,86.10
2023-03-29T05:17:42.314Z,86.30
2023-03-29T05:20:13.207Z,86.30
2023-03-29T05:22:40.406Z,86.50
2023-03-29T05:25:08.725Z,86.40
2023-03-29T05:27:35.984Z,86.60
2023-03-29T05:30:03.327Z,86.70
2023-03-29T05:32:30.526Z,86.70
2023-03-29T05:34:57.728Z,87.50
2023-03-29T05:37:24.494Z,87.30
2023-03-29T05:39:51.302Z,87.50
2023-03-29T05:42:19.431Z,87.20
2023-03-29T05:44:46.168Z,87.90
2023-03-29T05:47:12.922Z,88.00
2023-03-29T05:49:39.711Z,87.60
2023-03-29T05:52:06.766Z,87.70
2023-03-29T05:54:33.828Z,87.90
2023-03-29T05:57:00.697Z,87.70
2023-03-29T05:59:29.733Z,88.00
2023-03-29T06:01:56.692Z,88.20
2023-03-29T06:04:24.588Z,87.70
2023-03-29T06:06:53.048Z,87.80
2023-03-29T06:09:20.060Z,87.80
2023-03-29T06:11:47.658Z,87.80
2023-03-29T06:14:14.719Z,87.60
2023-03-29T06:16:42.828Z,87.70
2023-03-29T06:19:09.842Z,88.00
2023-03-29T06:21:36.594Z,87.90
2023-03-29T06:24:04.162Z,87.80
2023-03-29T06:26:31.386Z,88.20
2023-03-29T06:28:58.261Z,88.10
2023-03-29T06:31:25.352Z,87.90
2023-03-29T06:33:52.171Z,88.00
2023-03-29T06:36:20.189Z,87.90
2023-03-29T06:38:47.269Z,89.10
2023-03-29T06:41:14.882Z,88.30
2023-03-29T06:43:41.911Z,88.30
2023-03-29T06:46:11.945Z,87.90
2023-03-29T06:48:40.983Z,88.10
2023-03-29T06:51:07.864Z,88.10
2023-03-29T06:53:34.998Z,88.10
2023-03-29T06:56:05.430Z,88.20
2023-03-29T06:58:32.548Z,88.10
2023-03-29T07:01:04.033Z,87.90
2023-03-29T07:03:31.571Z,88.20
2023-03-29T07:06:09.581Z,87.80
2023-03-29T07:08:43.425Z,87.70
2023-03-29T07:11:13.207Z,87.90
2023-03-29T07:13:43.918Z,88.10
2023-03-29T07:16:15.267Z,88.10
2023-03-29T07:18:43.997Z,87.80
2023-03-29T07:21:12.481Z,88.00
2023-03-29T07:23:39.946Z,88.00
2023-03-29T07:26:08.118Z,87.30
2023-03-29T07:28:37.548Z,87.80
2023-03-29T07:31:11.053Z,87.40
2023-03-29T07:33:39.361Z,88.00
2023-03-29T07:36:07.212Z,87.80
2023-03-29T07:38:34.226Z,88.00
2023-03-29T07:41:04.938Z,89.10
2023-03-29T07:43:32.006Z,89.20
2023-03-29T07:46:03.081Z,89.00
2023-03-29T07:48:30.182Z,88.10
2023-03-29T07:50:57.257Z,88.10
2023-03-29T07:53:24.360Z,88.10
2023-03-29T07:55:52.592Z,88.00
2023-03-29T07:58:20.210Z,87.60
2023-03-29T08:00:49.118Z,87.50
2023-03-29T08:03:16.855Z,87.40
2023-03-29T08:05:43.765Z,87.00
2023-03-29T08:08:10.750Z,87.30
2023-03-29T08:10:39.622Z,87.10
2023-03-29T08:13:08.436Z,87.70
2023-03-29T08:15:40.048Z,86.80
2023-03-29T08:18:08.052Z,86.30
2023-03-29T08:20:35.143Z,85.80
2023-03-29T08:23:01.910Z,85.40
2023-03-29T08:25:28.829Z,85.00
2023-03-29T08:27:55.609Z,84.10
2023-03-29T08:30:22.381Z,83.90
2023-03-29T08:32:51.660Z,82.90
2023-03-29T08:35:20.795Z,82.80
2023-03-29T08:37:47.616Z,83.00
2023-03-29T08:40:22.215Z,82.30
2023-03-29T08:43:03.576Z,82.70
2023-03-29T08:45:41.778Z,81.80
2023-03-29T08:48:29.142Z,81.00
2023-03-29T08:51:12.976Z,79.30
2023-03-29T08:53:52.492Z,77.80
2023-03-29T08:56:27.987Z,77.50
2023-03-29T08:58:57.502Z,76.00
2023-03-29T09:01:27.941Z,75.10
2023-03-29T09:04:09.963Z,72.70
2023-03-29T09:06:39.948Z,72.00
2023-03-29T09:09:14.777Z,70.50
2023-03-29T09:12:12.839Z,69.60
2023-03-29T09:14:51.345Z,66.70
2023-03-29T09:17:21.576Z,63.20
2023-03-29T09:19:54.791Z,61.40
2023-03-29T09:22:33.822Z,59.70
2023-03-29T09:25:09.883Z,57.60
2023-03-29T09:27:48.370Z,57.40
2023-03-29T09:30:39.828Z,51.90
2023-03-29T09:33:30.473Z,51.70
2023-03-29T09:36:07.364Z,53.40
2023-03-29T09:38:42.468Z,51.60
2023-03-29T09:41:44.437Z,48.80
2023-03-29T09:44:30.212Z,49.90
2023-03-29T09:47:19.287Z,51.40
2023-03-29T09:49:49.930Z,50.60
2023-03-29T09:52:20.013Z,50.60
2023-03-29T09:54:46.968Z,50.30
2023-03-29T09:57:16.794Z,48.00
2023-03-29T09:59:46.209Z,47.20
2023-03-29T10:02:14.047Z,45.20
2023-03-29T10:04:42.994Z,43.50
2023-03-29T10:07:18.182Z,44.20
2023-03-29T10:09:47.033Z,42.70
2023-03-29T10:12:14.134Z,41.50
2023-03-29T10:14:49.444Z,41.40
2023-03-29T10:17:24.625Z,37.40
2023-03-29T10:19:57.056Z,36.10
2023-03-29T10:22:32.616Z,37.70
2023-03-29T10:24:59.405Z,37.30
2023-03-29T10:27:28.877Z,36.90
2023-03-29T10:29:58.380Z,38.80
2023-03-29T10:32:36.918Z,41.00
2023-03-29T10:35:26.146Z,41.40
2023-03-29T10:37:56.524Z,41.40
2023-03-29T10:40:34.562Z,42.40
2023-03-29T10:43:12.564Z,43.80
2023-03-29T10:45:41.133Z,43.80
2023-03-29T10:48:13.083Z,44.20
2023-03-29T10:50:40.308Z,44.90
2023-03-29T10:53:19.422Z,44.50
2023-03-29T10:55:52.422Z,45.80
2023-03-29T10:58:37.894Z,46.40
2023-03-29T11:01:05.904Z,47.80
2023-03-29T11:03:54.034Z,48.10
2023-03-29T11:06:28.993Z,48.50
2023-03-29T11:09:01.606Z,48.10
2023-03-29T11:12:01.104Z,47.50
2023-03-29T11:14:41.331Z,48.10
2023-03-29T11:17:28.445Z,48.30
2023-03-29T11:20:17.541Z,49.20
2023-03-29T11:23:22.605Z,49.80
2023-03-29T11:26:04.512Z,48.20
2023-03-29T11:29:04.667Z,49.10
2023-03-29T11:31:49.703Z,48.50
2023-03-29T11:34:22.224Z,51.00
2023-03-29T11:37:06.297Z,51.80
2023-03-29T11:40:32.536Z,50.60
2023-03-29T11:43:02.832Z,50.10
2023-03-29T11:45:36.822Z,47.90
2023-03-29T11:48:07.682Z,47.80
2023-03-29T11:50:56.904Z,48.70
2023-03-29T11:53:47.648Z,46.80
2023-03-29T11:56:24.775Z,45.80
2023-03-29T11:58:57.788Z,43.90
2023-03-29T12:01:35.838Z,44.50
2023-03-29T12:04:10.622Z,46.00
2023-03-29T12:06:50.096Z,45.50
2023-03-29T12:09:32.505Z,46.30
2023-03-29T12:12:10.114Z,46.00
2023-03-29T12:15:07.236Z,42.30
2023-03-29T12:17:47.103Z,41.30
2023-03-29T12:20:29.328Z,41.30
2023-03-29T12:22:56.189Z,42.50
2023-03-29T12:25:31.641Z,42.10
2023-03-29T12:28:32.937Z,44.20
2023-03-29T12:31:05.955Z,44.20
2023-03-29T12:33:53.624Z,44.20
2023-03-29T12:36:50.866Z,42.80
2023-03-29T12:39:20.358Z,42.00
2023-03-29T12:41:51.698Z,42.10
2023-03-29T12:44:23.466Z,42.70
2023-03-29T12:46:57.152Z,42.90
2023-03-29T12:49:36.184Z,41.90
2023-03-29T12:52:21.151Z,42.10
2023-03-29T12:54:57.413Z,41.60
2023-03-29T12:57:43.321Z,42.30
2023-03-29T13:00:23.675Z,41.80
2023-03-29T13:03:01.965Z,42.10
2023-03-29T13:05:36.226Z,41.30
2023-03-29T13:08:42.560Z,42.90
2023-03-29T13:11:25.165Z,42.70
2023-03-29T13:13:52.439Z,41.40
2023-03-29T13:16:28.087Z,41.40
2023-03-29T13:19:23.458Z,41.50
2023-03-29T13:22:13.916Z,41.20
2023-03-29T13:24:47.190Z,41.60
2023-03-29T13:27:31.958Z,41.70
2023-03-29T13:30:15.668Z,40.40
2023-03-29T13:33:25.631Z,41.30
2023-03-29T13:35:58.582Z,41.10
2023-03-29T13:38:31.411Z,41.50
2023-03-29T13:41:47.131Z,41.40
2023-03-29T13:44:23.267Z,41.40
2023-03-29T13:47:24.481Z,40.10
2023-03-29T13:49:58.546Z,39.80
2023-03-29T13:52:32.574Z,39.30
2023-03-29T13:55:15.901Z,38.60
2023-03-29T13:58:03.998Z,38.80
2023-03-29T14:00:49.535Z,39.70
2023-03-29T14:03:19.840Z,39.60
2023-03-29T14:05:56.533Z,38.80
2023-03-29T14:08:33.356Z,38.20
2023-03-29T14:11:03.831Z,37.70
2023-03-29T14:13:31.714Z,37.70
2023-03-29T14:16:09.140Z,37.70
2023-03-29T14:18:44.716Z,38.10
2023-03-29T14:21:14.766Z,38.50
2023-03-29T14:23:46.182Z,37.70
2023-03-29T14:26:21.622Z,37.30
2023-03-29T14:28:53.631Z,38.30
2023-03-29T14:31:31.976Z,39.20
2023-03-29T14:34:04.864Z,39.20
2023-03-29T14:36:33.578Z,40.10
2023-03-29T14:39:02.840Z,39.90
2023-03-29T14:41:31.797Z,39.90
2023-03-29T14:43:59.917Z,40.30
2023-03-29T14:46:27.482Z,40.80
2023-03-29T14:48:56.064Z,41.00
2023-03-29T14:51:28.727Z,41.10
2023-03-29T14:53:57.554Z,41.50
2023-03-29T14:56:26.327Z,41.00
2023-03-29T14:58:57.418Z,42.10
2023-03-29T15:01:26.775Z,42.50
2023-03-29T15:03:57.489Z,42.10
2023-03-29T15:06:26.374Z,41.80
2023-03-29T15:09:04.432Z,41.80
2023-03-29T15:11:34.060Z,42.40
2023-03-29T15:14:13.945Z,42.00
2023-03-29T15:16:43.270Z,41.80
2023-03-29T15:19:17.048Z,42.40
2023-03-29T15:21:45.308Z,42.90
2023-03-29T15:24:20.346Z,42.80
2023-03-29T15:26:59.463Z,42.90
2023-03-29T15:29:35.310Z,43.10
2023-03-29T15:32:02.298Z,43.10
2023-03-29T15:34:33.842Z,42.60
2023-03-29T15:37:01.761Z,42.60
2023-03-29T15:39:29.568Z,42.80
2023-03-29T15:41:57.938Z,42.70
2023-03-29T15:44:29.880Z,41.50
2023-03-29T15:46:57.791Z,41.90
2023-03-29T15:49:25.228Z,42.60
2023-03-29T15:51:55.428Z,42.70
2023-03-29T15:54:24.452Z,42.80
2023-03-29T15:57:05.097Z,43.30
2023-03-29T15:59:32.292Z,43.00
2023-03-29T16:01:59.603Z,43.20
2023-03-29T16:04:26.707Z,43.40
2023-03-29T16:06:54.944Z,43.20
2023-03-29T16:09:22.870Z,42.80
2023-03-29T16:11:50.350Z,43.10
2023-03-29T16:14:27.700Z,42.60
2023-03-29T16:16:55.701Z,42.50
2023-03-29T16:19:23.126Z,42.70
2023-03-29T16:21:50.907Z,42.40
2023-03-29T16:24:23.424Z,42.70
2023-03-29T16:26:53.369Z,43.20
2023-03-29T16:29:22.491Z,43.30
2023-03-29T16:31:50.186Z,43.20
2023-03-29T16:34:18.796Z,43.70
2023-03-29T16:36:50.047Z,43.90
2023-03-29T16:39:18.165Z,43.80
2023-03-29T16:41:48.001Z,44.30
2023-03-29T16:44:22.977Z,43.90
2023-03-29T16:46:51.636Z,44.50
2023-03-29T16:49:18.820Z,45.40
2023-03-29T16:51:49.304Z,44.90
2023-03-29T16:54:20.026Z,46.00
2023-03-29T16:56:47.052Z,46.70
2023-03-29T16:59:14.035Z,46.30
2023-03-29T17:01:40.982Z,46.50
2023-03-29T17:04:08.403Z,46.50
2023-03-29T17:06:36.026Z,46.40
2023-03-29T17:09:03.443Z,46.80
2023-03-29T17:11:30.752Z,47.00
2023-03-29T17:13:57.573Z,47.30
2023-03-29T17:16:24.568Z,47.60
2023-03-29T17:18:51.353Z,47.60
2023-03-29T17:21:18.172Z,47.60
2023-03-29T17:23:44.941Z,47.50
2023-03-29T17:26:12.010Z,47.80
2023-03-29T17:28:39.058Z,48.10
2023-03-29T17:31:07.536Z,48.50
2023-03-29T17:33:35.294Z,48.80
2023-03-29T17:36:02.859Z,49.00
2023-03-29T17:38:30.733Z,49.30
2023-03-29T17:40:57.648Z,49.40
2023-03-29T17:43:24.578Z,49.50
2023-03-29T17:45:52.972Z,49.80
2023-03-29T17:48:19.876Z,50.40
2023-03-29T17:50:46.838Z,50.40
2023-03-29T17:53:13.933Z,50.40
2023-03-29T17:55:41.355Z,50.30
2023-03-29T17:58:08.722Z,50.40
2023-03-29T18:00:35.796Z,50.50
2023-03-29T18:03:02.718Z,50.50
2023-03-29T18:05:29.551Z,50.80
2023-03-29T18:07:56.618Z,51.00
2023-03-29T18:10:23.792Z,50.90
2023-03-29T18:12:50.759Z,50.80
2023-03-29T18:15:17.763Z,50.60
2023-03-29T18:17:44.951Z,50.60
2023-03-29T18:20:12.841Z,50.60
2023-03-29T18:22:43.930Z,50.90
2023-03-29T18:25:11.231Z,51.10
2023-03-29T18:27:39.266Z,51.40
2023-03-29T18:30:08.655Z,51.00
2023-03-29T18:32:36.298Z,51.50
2023-03-29T18:35:03.698Z,51.20
2023-03-29T18:37:30.547Z,51.20
2023-03-29T18:39:57.366Z,51.40
2023-03-29T18:42:24.176Z,51.00
2023-03-29T18:44:51.285Z,50.90
2023-03-29T18:47:18.484Z,50.70
2023-03-29T18:49:45.348Z,50.50
2023-03-29T18:52:12.205Z,50.40
2023-03-29T18:54:39.206Z,50.70
2023-03-29T18:57:06.430Z,50.60
2023-03-29T18:59:35.973Z,50.60
2023-03-29T19:02:03.482Z,50.70
2023-03-29T19:04:30.393Z,50.60
2023-03-29T19:06:57.276Z,50.60
2023-03-29T19:09:24.038Z,50.50
2023-03-29T19:11:51.069Z,50.40
2023-03-29T19:14:23.482Z,50.70
2023-03-29T19:16:51.966Z,50.70
2023-03-29T19:19:19.349Z,50.60
2023-03-29T19:21:49.693Z,50.70
2023-03-29T19:24:16.760Z,50.60
2023-03-29T19:26:44.548Z,50.70
2023-03-29T19:29:11.764Z,50.60
2023-03-29T19:31:38.812Z,50.60
2023-03-29T19:34:07.121Z,50.60
2023-03-29T19:36:34.170Z,50.90
2023-03-29T19:39:03.444Z,51.20
2023-03-29T19:41:30.423Z,50.80
2023-03-29T19:43:57.197Z,50.80
2023-03-29T19:46:24.196Z,50.90
2023-03-29T19:48:55.321Z,51.00
2023-03-29T19:51:28.730Z,51.10
2023-03-29T19:53:56.449Z,51.10
2023-03-29T19:56:25.694Z,51.20
2023-03-29T19:58:53.116Z,51.10
2023-03-29T20:01:21.103Z,51.20
2023-03-29T20:03:49.286Z,51.40
2023-03-29T20:06:17.688Z,51.50
2023-03-29T20:08:45.192Z,51.20
2023-03-29T20:11:13.671Z,51.70
2023-03-29T20:13:44.987Z,51.50
2023-03-29T20:16:16.828Z,52.20
2023-03-29T20:18:46.867Z,51.50
2023-03-29T20:21:17.027Z,51.60
2023-03-29T20:23:44.353Z,51.90
2023-03-29T20:26:11.354Z,51.80
2023-03-29T20:28:38.482Z,51.90
2023-03-29T20:31:07.302Z,52.00
2023-03-29T20:33:35.709Z,51.90
2023-03-29T20:36:02.906Z,52.10
2023-03-29T20:38:30.301Z,52.00
2023-03-29T20:40:57.067Z,51.70
2023-03-29T20:43:24.666Z,51.90
2023-03-29T20:45:53.984Z,51.90
2023-03-29T20:48:30.253Z,51.80
2023-03-29T20:50:57.892Z,52.10
2023-03-29T20:53:25.229Z,51.90
2023-03-29T20:55:52.006Z,51.80
2023-03-29T20:58:19.055Z,51.70
2023-03-29T21:00:48.447Z,51.70
2023-03-29T21:03:20.127Z,52.10
2023-03-29T21:05:47.001Z,52.10
2023-03-29T21:08:17.567Z,52.10
2023-03-29T21:10:45.311Z,52.00
2023-03-29T21:13:12.138Z,52.70
2023-03-29T21:15:40.645Z,52.50
2023-03-29T21:18:09.830Z,52.60
2023-03-29T21:20:39.969Z,52.50
2023-03-29T21:23:06.737Z,52.50
2023-03-29T21:25:33.506Z,52.50
2023-03-29T21:28:00.265Z,52.80
2023-03-29T21:30:27.966Z,52.80
2023-03-29T21:32:56.308Z,52.80
2023-03-29T21:35:23.164Z,52.80
2023-03-29T21:37:50.012Z,52.90
2023-03-29T21:40:17.097Z,52.80
2023-03-29T21:42:43.899Z,53.00
2023-03-29T21:45:11.163Z,53.20
2023-03-29T21:47:38.011Z,53.40
2023-03-29T21:50:05.475Z,53.50
2023-03-29T21:52:32.196Z,53.50
2023-03-29T21:54:58.936Z,54.30
2023-03-29T21:57:26.086Z,53.80
2023-03-29T21:59:52.867Z,53.80
2023-03-29T22:02:19.662Z,53.80
2023-03-29T22:04:46.508Z,54.00
2023-03-29T22:07:13.766Z,54.00
2023-03-29T22:09:42.376Z,54.00
2023-03-29T22:12:10.096Z,53.90
2023-03-29T22:14:37.285Z,54.10
2023-03-29T22:17:09.392Z,54.30
2023-03-29T22:19:39.871Z,54.40
2023-03-29T22:22:13.738Z,55.00
2023-03-29T22:24:41.969Z,54.60
2023-03-29T22:27:09.160Z,55.00
2023-03-29T22:29:35.960Z,55.20
2023-03-29T22:32:03.014Z,55.20
2023-03-29T22:34:30.122Z,55.30
2023-03-29T22:36:56.896Z,55.60
2023-03-29T22:39:23.672Z,55.80
2023-03-29T22:41:50.531Z,55.70
2023-03-29T22:44:17.296Z,56.00
2023-03-29T22:46:44.058Z,56.30
2023-03-29T22:49:11.518Z,56.40
2023-03-29T22:51:38.514Z,56.50
2023-03-29T22:54:05.358Z,56.80
2023-03-29T22:56:32.217Z,56.80
2023-03-29T22:58:59.097Z,56.90
2023-03-29T23:01:26.081Z,57.20
2023-03-29T23:03:53.083Z,57.30
2023-03-29T23:06:19.917Z,57.50
2023-03-29T23:08:46.738Z,57.60
2023-03-29T23:11:13.535Z,57.90
2023-03-29T23:13:40.398Z,58.20
2023-03-29T23:16:07.496Z,58.20
2023-03-29T23:18:37.863Z,58.40
2023-03-29T23:21:06.123Z,58.70
2023-03-29T23:23:33.621Z,59.10
2023-03-29T23:26:01.262Z,59.30
2023-03-29T23:28:30.519Z,59.30
2023-03-29T23:31:12.303Z,59.60
2023-03-29T23:33:41.397Z,60.10
2023-03-29T23:36:11.129Z,60.10
2023-03-29T23:38:39.686Z,60.20
2023-03-29T23:41:10.884Z,61.50
2023-03-29T23:43:40.585Z,61.00
2023-03-29T23:46:13.465Z,61.20
2023-03-29T23:48:40.353Z,61.50
2023-03-29T23:51:08.173Z,61.50
2023-03-29T23:53:34.936Z,61.70
2023-03-29T23:56:03.793Z,61.60
2023-03-29T23:58:33.205Z,61.80
